Time;durP1;ratioP1;P1;durP2;ratioP2;P2;SDS_P1;SDS_P2;PMS_P1;PMS_P2;Temp;Humidity;BMP_temperature;BMP_pressure;BME280_temperature;BME280_humidity;BME280_pressure;Samples;Min_cycle;Max_cycle;Signal;HPM_P1;HPM_P2
2021/06/13 00:02:10;;;;;;;4.38;3.97;;;;;;;;;;5005117;28;20416;-60
2021/06/13 00:04:35;;;;;;;4.30;4.00;;;;;;;;;;5003867;28;20080;-61
2021/06/13 00:07:01;;;;;;;3.70;3.40;;;;;;;;;;4997765;28;20068;-61
2021/06/13 00:09:26;;;;;;;4.28;3.88;;;;;;;;;;5001598;28;20030;-60
2021/06/13 00:11:52;;;;;;;4.03;3.72;;;;;;;;;;4999087;28;20113;-60
2021/06/13 00:14:18;;;;;;;3.58;3.28;;;;;;;;;;4998984;28;20041;-60
2021/06/13 00:16:45;;;;;;;4.10;3.72;;;;;;;;;;5005070;28;20026;-60
2021/06/13 00:19:11;;;;;;;5.65;4.20;;;;;;;;;;5001489;28;20111;-59
2021/06/13 00:21:37;;;;;;;4.90;4.40;;;;;;;;;;5002686;28;20030;-60
2021/06/13 00:24:04;;;;;;;4.10;3.80;;;;;;;;;;4999994;28;20034;-60
2021/06/13 00:26:29;;;;;;;3.88;3.30;;;;;;;;;;5002609;28;20123;-60
2021/06/13 00:28:55;;;;;;;4.18;3.78;;;;;;;;;;5000198;28;20025;-59
2021/06/13 00:31:20;;;;;;;4.63;4.22;;;;;;;;;;4991805;28;20413;-60
2021/06/13 00:33:46;;;;;;;4.50;4.07;;;;;;;;;;4996998;28;20403;-60
2021/06/13 00:36:12;;;;;;;4.70;4.28;;;;;;;;;;5002093;28;20042;-60
2021/06/13 00:38:37;;;;;;;4.72;4.32;;;;;;;;;;4998716;28;20041;-60
2021/06/13 00:41:03;;;;;;;4.63;4.22;;;;;;;;;;4999212;28;20032;-60
2021/06/13 00:43:28;;;;;;;3.80;3.50;;;;;;;;;;4999488;28;20173;-60
2021/06/13 00:45:54;;;;;;;4.00;3.70;;;;;;;;;;5000066;28;20034;-60
2021/06/13 00:48:19;;;;;;;7.18;4.03;;;;;;;;;;5001274;28;20101;-60
2021/06/13 00:50:50;;;;;;;4.47;4.07;;;;;;;;;;4998390;28;20455;-60
2021/06/13 00:53:16;;;;;;;4.25;3.85;;;;;;;;;;4999901;28;20034;-60
2021/06/13 00:55:42;;;;;;;4.20;3.90;;;;;;;;;;5001695;28;20443;-60
2021/06/13 00:58:08;;;;;;;5.60;4.38;;;;;;;;;;5004516;28;20388;-60
2021/06/13 01:00:35;;;;;;;4.35;3.95;;;;;;;;;;5000888;28;20068;-60
2021/06/13 01:03:01;;;;;;;4.47;4.07;;;;;;;;;;4998684;28;20221;-60
2021/06/13 01:05:27;;;;;;;4.28;3.88;;;;;;;;;;5002354;28;20025;-60
2021/06/13 01:08:18;;;;;;;5.18;4.68;;;;;;;;;;5001167;28;20045;-61
2021/06/13 01:10:44;;;;;;;4.75;4.25;;;;;;;;;;4999240;28;20033;-61
2021/06/13 01:13:45;;;;;;;5.60;4.20;;;;;;;;;;5002002;28;20030;-61
2021/06/13 01:16:36;;;;;;;5.13;4.10;;;;;;;;;;5003396;28;20034;-61
2021/06/13 01:19:26;;;;;;;5.00;4.50;;;;;;;;;;4998338;28;20073;-61
2021/06/13 01:21:54;;;;;;;;;;;;;;;;;;4995905;28;20029;-61
2021/06/13 01:25:01;;;;;;;4.97;4.47;;;;;;;;;;5003791;28;19917;-61
2021/06/13 01:27:48;;;;;;;3.75;3.40;;;;;;;;;;5003469;28;20095;-59
2021/06/13 01:30:15;;;;;;;4.30;3.90;;;;;;;;;;5000970;28;20037;-59
2021/06/13 01:32:40;;;;;;;4.50;4.10;;;;;;;;;;5006277;28;20113;-61
2021/06/13 01:35:10;;;;;;;4.50;4.10;;;;;;;;;;5004992;28;20598;-61
2021/06/13 01:37:38;;;;;;;4.82;4.43;;;;;;;;;;5003655;28;20017;-61
2021/06/13 01:40:12;;;;;;;6.20;3.75;;;;;;;;;;5001903;28;20030;-61
2021/06/13 01:42:41;;;;;;;4.30;3.63;;;;;;;;;;5001714;28;20515;-61
2021/06/13 01:45:09;;;;;;;3.92;3.60;;;;;;;;;;5001561;28;20033;-61
2021/06/13 01:47:37;;;;;;;4.20;3.85;;;;;;;;;;5003969;28;20057;-61
2021/06/13 01:50:04;;;;;;;6.38;4.05;;;;;;;;;;5019410;28;20026;-61
2021/06/13 01:52:32;;;;;;;4.93;4.00;;;;;;;;;;5003823;28;20042;-61
2021/06/13 01:54:58;;;;;;;4.55;4.05;;;;;;;;;;5001232;28;20167;-61
2021/06/13 01:57:25;;;;;;;4.60;4.20;;;;;;;;;;5003378;28;20038;-61
2021/06/13 01:59:52;;;;;;;4.07;3.78;;;;;;;;;;4999705;28;20484;-61
2021/06/13 02:02:19;;;;;;;4.97;4.25;;;;;;;;;;5000516;28;20483;-61
2021/06/13 02:04:45;;;;;;;4.38;4.00;;;;;;;;;;5001764;28;20026;-61
2021/06/13 02:07:12;;;;;;;4.00;3.60;;;;;;;;;;4999285;28;20554;-61
2021/06/13 02:09:39;;;;;;;4.10;3.70;;;;;;;;;;5020210;28;20133;-61
2021/06/13 02:12:05;;;;;;;4.63;3.88;;;;;;;;;;4995412;28;20311;-59
2021/06/13 02:14:33;;;;;;;4.43;3.88;;;;;;;;;;5004569;28;20508;-59
2021/06/13 02:17:02;;;;;;;3.75;3.45;;;;;;;;;;5004027;28;20183;-60
2021/06/13 02:19:29;;;;;;;4.28;3.90;;;;;;;;;;4996354;28;20026;-60
2021/06/13 02:21:56;;;;;;;4.75;4.15;;;;;;;;;;4997807;28;20049;-60
2021/06/13 02:24:29;;;;;;;4.88;4.38;;;;;;;;;;5002348;28;20025;-60
2021/06/13 02:26:55;;;;;;;3.97;3.67;;;;;;;;;;5000435;28;20103;-60
2021/06/13 02:29:22;;;;;;;4.32;3.90;;;;;;;;;;4997995;28;20370;-60
2021/06/13 02:31:48;;;;;;;4.82;4.35;;;;;;;;;;5000241;28;20045;-60
2021/06/13 02:34:23;;;;;;;5.63;4.20;;;;;;;;;;5004619;28;20117;-60
2021/06/13 02:36:53;;;;;;;6.15;4.20;;;;;;;;;;5000633;28;20030;-60
2021/06/13 02:39:20;;;;;;;4.53;4.10;;;;;;;;;;5000609;28;20119;-60
2021/06/13 02:41:50;;;;;;;4.25;3.85;;;;;;;;;;5017638;28;20029;-60
2021/06/13 02:44:16;;;;;;;5.85;4.25;;;;;;;;;;5001412;28;20042;-59
2021/06/13 02:46:41;;;;;;;5.45;4.25;;;;;;;;;;4998099;28;20398;-60
2021/06/13 02:49:09;;;;;;;4.22;3.80;;;;;;;;;;5001234;28;20037;-60
2021/06/13 02:51:36;;;;;;;4.50;4.05;;;;;;;;;;4995312;28;20060;-60
2021/06/13 02:54:06;;;;;;;4.80;4.22;;;;;;;;;;4997979;28;20023;-60
2021/06/13 02:56:39;;;;;;;5.32;3.80;;;;;;;;;;5000469;28;20030;-59
2021/06/13 02:59:32;;;;;;;5.60;4.30;;;;;;;;;;5002745;28;20166;-60
2021/06/13 03:01:59;;;;;;;4.55;4.10;;;;;;;;;;5003641;28;20112;-60
2021/06/13 03:04:24;;;;;;;4.72;4.32;;;;;;;;;;5001973;28;20045;-60
2021/06/13 03:06:56;;;;;;;4.63;4.15;;;;;;;;;;4999099;28;20029;-60
2021/06/13 03:09:24;;;;;;;5.15;4.65;;;;;;;;;;4998109;28;20088;-60
2021/06/13 03:11:50;;;;;;;4.90;4.50;;;;;;;;;;5001762;28;20060;-60
2021/06/13 03:14:16;;;;;;;4.65;3.97;;;;;;;;;;5002808;28;20038;-60
2021/06/13 03:16:43;;;;;;;4.50;4.10;;;;;;;;;;5005277;28;20480;-60
2021/06/13 03:19:09;;;;;;;5.30;4.40;;;;;;;;;;5002115;28;20072;-61
2021/06/13 03:21:36;;;;;;;4.53;4.13;;;;;;;;;;4994153;28;20037;-60
2021/06/13 03:24:02;;;;;;;4.90;4.40;;;;;;;;;;5012653;28;20030;-61
2021/06/13 03:26:28;;;;;;;4.03;3.70;;;;;;;;;;5005175;28;20454;-61
2021/06/13 03:28:59;;;;;;;4.90;4.47;;;;;;;;;;5004952;28;20377;-60
2021/06/13 03:31:25;;;;;;;6.60;4.75;;;;;;;;;;5004650;28;20165;-61
2021/06/13 03:33:53;;;;;;;4.68;4.28;;;;;;;;;;4994419;28;20358;-60
2021/06/13 03:36:19;;;;;;;5.90;4.50;;;;;;;;;;5001605;28;20026;-61
2021/06/13 03:38:46;;;;;;;4.75;4.28;;;;;;;;;;4998120;28;20315;-61
2021/06/13 03:41:14;;;;;;;4.75;4.18;;;;;;;;;;4995429;28;20439;-60
2021/06/13 03:43:41;;;;;;;4.38;3.95;;;;;;;;;;5000074;28;20451;-60
2021/06/13 03:46:07;;;;;;;4.82;4.32;;;;;;;;;;4996970;28;20029;-60
2021/06/13 03:48:34;;;;;;;4.72;4.10;;;;;;;;;;4996591;28;20171;-61
2021/06/13 03:50:59;;;;;;;5.15;4.30;;;;;;;;;;4999822;28;20022;-60
2021/06/13 03:53:25;;;;;;;4.60;4.20;;;;;;;;;;4998018;28;20053;-61
2021/06/13 03:55:53;;;;;;;5.25;4.22;;;;;;;;;;5004198;28;20017;-61
2021/06/13 03:58:23;;;;;;;6.22;4.35;;;;;;;;;;4998696;28;20028;-60
2021/06/13 04:00:50;;;;;;;4.88;3.95;;;;;;;;;;4995811;28;20492;-59
2021/06/13 04:03:17;;;;;;;4.70;4.25;;;;;;;;;;5000143;28;20114;-59
2021/06/13 04:05:45;;;;;;;4.95;4.47;;;;;;;;;;5004305;28;20028;-60
2021/06/13 04:08:13;;;;;;;4.88;4.45;;;;;;;;;;4997751;28;20082;-60
2021/06/13 04:10:40;;;;;;;4.50;4.10;;;;;;;;;;5002634;28;20041;-60
2021/06/13 04:13:06;;;;;;;4.65;4.25;;;;;;;;;;4996572;28;20038;-60
2021/06/13 04:15:32;;;;;;;4.80;4.40;;;;;;;;;;4999605;28;20100;-61
2021/06/13 04:17:58;;;;;;;4.43;4.03;;;;;;;;;;4997917;28;20033;-61
2021/06/13 04:20:26;;;;;;;4.82;4.43;;;;;;;;;;5004081;28;20108;-61
2021/06/13 04:22:53;;;;;;;4.35;3.85;;;;;;;;;;4999040;28;20121;-61
2021/06/13 04:25:20;;;;;;;4.80;3.85;;;;;;;;;;5007217;28;20116;-61
2021/06/13 04:27:47;;;;;;;6.18;4.13;;;;;;;;;;4998257;28;20117;-61
2021/06/13 04:30:13;;;;;;;5.60;4.10;;;;;;;;;;5002160;28;20044;-61
2021/06/13 04:32:38;;;;;;;4.70;4.25;;;;;;;;;;5008558;28;20372;-60
2021/06/13 04:35:04;;;;;;;5.18;4.65;;;;;;;;;;5004043;28;20120;-61
2021/06/13 04:37:30;;;;;;;4.15;3.70;;;;;;;;;;4998544;28;20120;-61
2021/06/13 04:39:55;;;;;;;5.22;3.83;;;;;;;;;;5003075;28;20112;-61
2021/06/13 04:42:21;;;;;;;5.00;3.88;;;;;;;;;;5008822;28;20041;-61
2021/06/13 04:44:46;;;;;;;5.45;4.00;;;;;;;;;;5003793;28;20420;-61
2021/06/13 04:47:12;;;;;;;5.40;4.20;;;;;;;;;;5003505;28;20376;-61
2021/06/13 04:49:37;;;;;;;4.90;4.03;;;;;;;;;;5007179;28;20030;-61
2021/06/13 04:52:06;;;;;;;4.45;4.05;;;;;;;;;;5003404;28;20038;-61
2021/06/13 04:54:47;;;;;;;5.50;4.30;;;;;;;;;;5000904;28;20041;-60
2021/06/13 04:57:34;;;;;;;5.13;4.63;;;;;;;;;;5001933;28;20476;-61
2021/06/13 05:00:00;;;;;;;4.95;4.13;;;;;;;;;;4999562;28;20053;-61
2021/06/13 05:02:25;;;;;;;4.32;3.75;;;;;;;;;;5003031;28;20461;-61
2021/06/13 05:04:54;;;;;;;5.10;4.60;;;;;;;;;;5006454;28;20031;-61
2021/06/13 05:07:19;;;;;;;4.90;3.60;;;;;;;;;;5006624;28;20030;-61
2021/06/13 05:09:45;;;;;;;4.57;4.10;;;;;;;;;;5000573;28;20025;-60
2021/06/13 05:12:11;;;;;;;4.38;3.85;;;;;;;;;;5000278;28;20104;-60
2021/06/13 05:14:36;;;;;;;4.60;4.05;;;;;;;;;;4999542;28;20034;-60
2021/06/13 05:17:02;;;;;;;4.85;4.13;;;;;;;;;;5004787;28;20496;-60
2021/06/13 05:19:28;;;;;;;4.05;3.42;;;;;;;;;;5002118;28;20045;-60
2021/06/13 05:21:53;;;;;;;3.92;3.50;;;;;;;;;;5006474;28;20496;-60
2021/06/13 05:24:18;;;;;;;5.28;4.03;;;;;;;;;;5007661;28;20022;-61
2021/06/13 05:26:44;;;;;;;5.88;4.10;;;;;;;;;;5001968;28;20045;-60
2021/06/13 05:29:09;;;;;;;3.90;3.45;;;;;;;;;;5005308;28;20018;-60
2021/06/13 05:31:35;;;;;;;5.25;3.65;;;;;;;;;;5001135;28;20631;-59
2021/06/13 05:34:00;;;;;;;3.65;3.10;;;;;;;;;;4999197;28;20117;-58
2021/06/13 05:36:26;;;;;;;4.03;3.17;;;;;;;;;;5003140;28;20489;-58
2021/06/13 05:38:51;;;;;;;4.63;3.40;;;;;;;;;;5017822;28;20093;-60
2021/06/13 05:41:16;;;;;;;6.80;3.70;;;;;;;;;;5003734;28;20531;-59
2021/06/13 05:43:42;;;;;;;4.45;3.63;;;;;;;;;;5004599;28;20423;-59
2021/06/13 05:46:09;;;;;;;3.67;3.30;;;;;;;;;;4999048;28;20432;-59
2021/06/13 05:48:34;;;;;;;4.40;3.20;;;;;;;;;;5001358;28;20026;-59
2021/06/13 05:51:04;;;;;;;3.78;3.05;;;;;;;;;;5003016;28;20033;-59
2021/06/13 05:53:29;;;;;;;;;;;;;;;;;;5007308;28;20030;-60
2021/06/13 05:55:55;;;;;;;4.32;3.28;;;;;;;;;;5007728;28;20372;-59
2021/06/13 05:58:21;;;;;;;3.85;3.40;;;;;;;;;;5001629;28;20096;-60
2021/06/13 06:00:47;;;;;;;3.95;3.40;;;;;;;;;;5008345;28;20065;-60
2021/06/13 06:03:13;;;;;;;5.03;3.35;;;;;;;;;;5020251;28;20057;-59
2021/06/13 06:05:39;;;;;;;4.00;3.28;;;;;;;;;;4997402;28;20120;-60
2021/06/13 06:08:05;;;;;;;3.92;3.50;;;;;;;;;;5001304;28;20029;-60
2021/06/13 06:10:33;;;;;;;5.65;3.60;;;;;;;;;;5006864;28;20033;-59
2021/06/13 06:13:01;;;;;;;3.70;3.38;;;;;;;;;;4997903;28;20057;-59
2021/06/13 06:15:28;;;;;;;4.28;3.50;;;;;;;;;;4998301;28;20056;-59
2021/06/13 06:17:54;;;;;;;5.07;3.58;;;;;;;;;;4995262;28;20485;-59
2021/06/13 06:20:23;;;;;;;4.35;3.20;;;;;;;;;;5019382;28;20030;-59
2021/06/13 06:22:49;;;;;;;3.85;3.35;;;;;;;;;;5000142;28;20105;-59
2021/06/13 06:25:15;;;;;;;3.95;3.60;;;;;;;;;;5003041;28;20445;-59
2021/06/13 06:27:41;;;;;;;3.45;3.15;;;;;;;;;;4993520;28;20026;-58
2021/06/13 06:30:09;;;;;;;4.57;2.92;;;;;;;;;;5002698;28;20136;-59
2021/06/13 06:32:34;;;;;;;3.60;3.25;;;;;;;;;;5000658;28;20228;-59
2021/06/13 06:35:00;;;;;;;5.00;3.22;;;;;;;;;;5005182;28;20032;-59
2021/06/13 06:37:25;;;;;;;6.50;3.10;;;;;;;;;;5003986;28;20037;-59
2021/06/13 06:39:51;;;;;;;4.10;3.70;;;;;;;;;;4997617;28;20121;-59
2021/06/13 06:42:16;;;;;;;5.20;3.00;;;;;;;;;;4997277;28;20128;-60
2021/06/13 06:44:42;;;;;;;3.03;2.80;;;;;;;;;;4995297;28;20473;-59
2021/06/13 06:47:07;;;;;;;5.03;3.40;;;;;;;;;;5003078;28;20116;-59
2021/06/13 06:49:33;;;;;;;4.50;3.72;;;;;;;;;;5001032;28;20421;-59
2021/06/13 06:51:59;;;;;;;5.00;3.40;;;;;;;;;;5001420;28;20540;-59
2021/06/13 06:54:26;;;;;;;3.40;3.03;;;;;;;;;;5000334;28;20033;-60
2021/06/13 06:56:51;;;;;;;4.35;3.00;;;;;;;;;;4999235;28;20489;-59
2021/06/13 06:59:17;;;;;;;3.22;3.00;;;;;;;;;;5014991;28;20034;-59
2021/06/13 07:01:42;;;;;;;4.18;3.38;;;;;;;;;;5001172;28;20034;-59
2021/06/13 07:04:09;;;;;;;3.25;2.85;;;;;;;;;;5001756;28;20040;-60
2021/06/13 07:06:35;;;;;;;3.72;3.05;;;;;;;;;;5002038;28;20076;-60
2021/06/13 07:09:00;;;;;;;5.03;3.40;;;;;;;;;;4999445;28;20022;-60
2021/06/13 07:11:26;;;;;;;4.20;3.47;;;;;;;;;;4998239;28;20030;-60
2021/06/13 07:13:51;;;;;;;5.60;3.38;;;;;;;;;;4993185;28;20484;-60
2021/06/13 07:16:16;;;;;;;3.55;3.25;;;;;;;;;;4997355;28;20022;-60
2021/06/13 07:18:42;;;;;;;3.88;3.22;;;;;;;;;;4994900;28;20140;-61
2021/06/13 07:21:08;;;;;;;4.80;3.95;;;;;;;;;;4998245;28;20029;-61
2021/06/13 07:23:34;;;;;;;3.50;3.20;;;;;;;;;;4998671;28;20046;-60
2021/06/13 07:25:59;;;;;;;4.80;3.10;;;;;;;;;;4995552;28;20042;-60
2021/06/13 07:28:25;;;;;;;3.45;2.95;;;;;;;;;;5023121;28;20030;-61
2021/06/13 07:30:50;;;;;;;3.92;3.05;;;;;;;;;;4999726;28;20077;-60
2021/06/13 07:33:16;;;;;;;3.53;2.80;;;;;;;;;;4998523;28;20029;-60
2021/06/13 07:35:41;;;;;;;5.35;3.38;;;;;;;;;;5001774;28;20033;-60
2021/06/13 07:38:07;;;;;;;6.22;2.80;;;;;;;;;;5000922;28;20030;-60
2021/06/13 07:40:33;;;;;;;3.03;2.83;;;;;;;;;;4998825;28;20444;-60
2021/06/13 07:43:00;;;;;;;3.30;3.00;;;;;;;;;;4994556;28;20034;-60
2021/06/13 07:45:25;;;;;;;3.55;3.03;;;;;;;;;;5002023;28;20057;-60
2021/06/13 07:47:52;;;;;;;3.03;2.72;;;;;;;;;;5014642;28;20500;-60
2021/06/13 07:50:19;;;;;;;3.55;2.78;;;;;;;;;;5002297;28;20113;-60
2021/06/13 07:52:46;;;;;;;4.13;3.03;;;;;;;;;;5005006;28;20026;-60
2021/06/13 07:55:14;;;;;;;4.65;2.95;;;;;;;;;;5002272;28;20042;-59
2021/06/13 07:57:42;;;;;;;3.35;2.97;;;;;;;;;;4997836;28;20029;-61
2021/06/13 08:00:10;;;;;;;3.78;2.90;;;;;;;;;;4999216;28;20030;-60
2021/06/13 08:02:36;;;;;;;3.25;2.95;;;;;;;;;;5005805;28;20373;-60
2021/06/13 08:05:08;;;;;;;4.00;2.90;;;;;;;;;;5004848;28;20375;-59
2021/06/13 08:07:33;;;;;;;3.75;2.70;;;;;;;;;;5003372;28;20025;-61
2021/06/13 08:09:59;;;;;;;5.88;3.00;;;;;;;;;;5004785;28;20029;-60
2021/06/13 08:12:24;;;;;;;3.00;2.63;;;;;;;;;;5006793;28;20045;-61
2021/06/13 08:14:50;;;;;;;3.45;2.80;;;;;;;;;;5002147;28;20021;-60
2021/06/13 08:17:16;;;;;;;3.42;2.70;;;;;;;;;;5006329;28;20105;-61
2021/06/13 08:19:41;;;;;;;2.80;2.60;;;;;;;;;;5005622;28;20037;-60
2021/06/13 08:22:07;;;;;;;3.92;2.72;;;;;;;;;;4997971;28;20037;-59
2021/06/13 08:24:33;;;;;;;3.08;2.47;;;;;;;;;;5000954;28;20042;-59
2021/06/13 08:26:59;;;;;;;3.15;2.30;;;;;;;;;;5000012;28;20026;-60
2021/06/13 08:29:25;;;;;;;5.05;2.72;;;;;;;;;;5018399;28;20038;-60
2021/06/13 08:31:50;;;;;;;3.97;2.60;;;;;;;;;;5007270;28;20033;-60
2021/06/13 08:34:16;;;;;;;3.30;2.55;;;;;;;;;;5003280;28;20355;-59
2021/06/13 08:36:41;;;;;;;4.35;3.03;;;;;;;;;;5006223;28;20111;-60
2021/06/13 08:39:07;;;;;;;3.40;2.70;;;;;;;;;;5005280;28;20048;-60
2021/06/13 08:41:32;;;;;;;3.92;2.55;;;;;;;;;;5001518;28;20022;-60
2021/06/13 08:43:59;;;;;;;4.82;2.63;;;;;;;;;;5001088;28;20026;-60
2021/06/13 08:46:25;;;;;;;3.95;2.47;;;;;;;;;;5007142;28;20038;-59
2021/06/13 08:48:51;;;;;;;3.90;2.83;;;;;;;;;;5005702;28;20025;-60
2021/06/13 08:51:33;;;;;;;3.08;2.78;;;;;;;;;;5005194;28;20030;-61
2021/06/13 08:53:59;;;;;;;2.65;2.22;;;;;;;;;;5002983;28;20036;-61
2021/06/13 08:56:24;;;;;;;2.88;2.13;;;;;;;;;;5000367;28;20392;-59
2021/06/13 08:58:52;;;;;;;4.18;2.63;;;;;;;;;;5008991;28;20026;-60
2021/06/13 09:01:18;;;;;;;3.50;2.15;;;;;;;;;;5004598;28;20084;-61
2021/06/13 09:03:44;;;;;;;3.38;2.08;;;;;;;;;;5002712;28;20509;-60
2021/06/13 09:06:11;;;;;;;3.17;2.20;;;;;;;;;;5001369;28;20037;-60
2021/06/13 09:08:39;;;;;;;3.05;2.17;;;;;;;;;;4998217;28;20027;-60
2021/06/13 09:11:05;;;;;;;2.58;1.85;;;;;;;;;;5001754;28;20040;-60
2021/06/13 09:13:32;;;;;;;2.97;2.08;;;;;;;;;;5005298;28;20084;-61
2021/06/13 09:16:00;;;;;;;3.30;2.13;;;;;;;;;;4997451;28;20149;-61
2021/06/13 09:18:32;;;;;;;2.72;1.83;;;;;;;;;;4995746;28;20033;-61
2021/06/13 09:20:59;;;;;;;3.85;2.42;;;;;;;;;;5000423;28;20570;-61
2021/06/13 09:23:27;;;;;;;3.60;2.17;;;;;;;;;;5021412;28;20026;-61
2021/06/13 09:25:58;;;;;;;2.80;1.70;;;;;;;;;;4999892;28;20104;-61
2021/06/13 09:28:26;;;;;;;2.20;2.00;;;;;;;;;;5003103;28;20038;-61
2021/06/13 09:30:52;;;;;;;2.22;1.90;;;;;;;;;;5001827;28;20026;-61
2021/06/13 09:33:23;;;;;;;4.22;1.95;;;;;;;;;;5006391;28;20049;-61
2021/06/13 09:35:49;;;;;;;2.83;2.13;;;;;;;;;;5004038;28;20109;-61
2021/06/13 09:38:24;;;;;;;3.55;1.92;;;;;;;;;;5001222;28;20441;-59
2021/06/13 09:41:07;;;;;;;3.92;2.10;;;;;;;;;;5002083;28;20030;-61
2021/06/13 09:43:40;;;;;;;3.30;2.20;;;;;;;;;;5001628;28;20088;-61
2021/06/13 09:46:08;;;;;;;3.50;1.80;;;;;;;;;;4998174;28;20033;-61
2021/06/13 09:48:41;;;;;;;2.47;1.60;;;;;;;;;;5003533;28;20034;-61
2021/06/13 09:51:17;;;;;;;2.22;1.52;;;;;;;;;;5000330;28;20037;-61
2021/06/13 09:53:53;;;;;;;2.78;1.80;;;;;;;;;;5002224;28;20019;-60
2021/06/13 09:56:24;;;;;;;3.28;1.88;;;;;;;;;;5001436;28;20472;-61
2021/06/13 09:58:52;;;;;;;3.60;1.70;;;;;;;;;;4996172;28;20053;-61
2021/06/13 10:01:19;;;;;;;1.90;1.60;;;;;;;;;;4999065;28;20530;-61
2021/06/13 10:03:48;;;;;;;2.38;1.90;;;;;;;;;;4999560;28;20845;-61
2021/06/13 10:06:15;;;;;;;3.30;1.60;;;;;;;;;;5007455;28;20030;-61
2021/06/13 10:08:42;;;;;;;1.73;1.63;;;;;;;;;;4999575;28;20338;-61
2021/06/13 10:11:09;;;;;;;3.38;1.75;;;;;;;;;;4999614;28;20451;-61
2021/06/13 10:13:38;;;;;;;3.58;1.77;;;;;;;;;;5007241;28;20025;-61
2021/06/13 10:16:04;;;;;;;2.67;1.92;;;;;;;;;;5000702;28;20042;-61
2021/06/13 10:18:30;;;;;;;2.30;1.50;;;;;;;;;;4996120;28;20037;-61
2021/06/13 10:21:30;;;;;;;3.72;1.75;;;;;;;;;;5004861;28;20025;-61
2021/06/13 10:23:56;;;;;;;2.25;1.60;;;;;;;;;;4999666;28;20034;-61
2021/06/13 10:26:22;;;;;;;2.63;1.63;;;;;;;;;;5001158;28;20029;-61
2021/06/13 10:28:48;;;;;;;2.78;1.52;;;;;;;;;;5007441;28;20033;-62
2021/06/13 10:31:13;;;;;;;2.08;1.70;;;;;;;;;;5001064;28;20100;-61
2021/06/13 10:33:40;;;;;;;2.13;1.52;;;;;;;;;;5007244;28;20480;-61
2021/06/13 10:36:06;;;;;;;4.80;1.58;;;;;;;;;;4998443;28;20408;-61
2021/06/13 10:38:32;;;;;;;1.85;1.38;;;;;;;;;;5001370;28;20030;-60
2021/06/13 10:40:58;;;;;;;2.80;1.50;;;;;;;;;;4998616;28;20100;-60
2021/06/13 10:43:27;;;;;;;2.45;1.30;;;;;;;;;;5001570;28;20049;-60
2021/06/13 10:46:02;;;;;;;1.63;1.50;;;;;;;;;;5005553;28;20026;-60
2021/06/13 10:48:36;;;;;;;2.70;1.70;;;;;;;;;;5001140;28;20037;-60
2021/06/13 10:51:27;;;;;;;1.98;1.48;;;;;;;;;;5004899;28;20029;-61
2021/06/13 10:53:53;;;;;;;2.83;2.05;;;;;;;;;;5005208;28;20041;-60
2021/06/13 10:56:26;;;;;;;2.53;1.50;;;;;;;;;;5008040;28;20431;-60
2021/06/13 10:59:02;;;;;;;1.88;1.75;;;;;;;;;;5003869;28;20026;-61
2021/06/13 11:01:29;;;;;;;2.13;1.50;;;;;;;;;;4998753;28;20034;-60
2021/06/13 11:04:07;;;;;;;3.58;1.90;;;;;;;;;;5005163;28;20080;-61
2021/06/13 11:06:39;;;;;;;3.65;2.42;;;;;;;;;;5003686;28;20087;-61
2021/06/13 11:09:06;;;;;;;3.88;3.47;;;;;;;;;;4994852;28;20040;-61
2021/06/13 11:11:36;;;;;;;3.60;3.10;;;;;;;;;;5006715;28;20480;-61
2021/06/13 11:14:21;;;;;;;3.50;3.20;;;;;;;;;;4992715;28;20034;-61
2021/06/13 11:16:47;;;;;;;3.63;3.15;;;;;;;;;;4999662;28;20053;-61
2021/06/13 11:19:34;;;;;;;2.60;1.20;;;;;;;;;;5002643;28;20034;-60
2021/06/13 11:22:18;;;;;;;7.88;1.95;;;;;;;;;;5000733;28;20026;-60
2021/06/13 11:24:50;;;;;;;2.85;1.40;;;;;;;;;;5005966;28;20488;-60
2021/06/13 11:27:16;;;;;;;2.60;1.70;;;;;;;;;;5003375;28;20510;-61
2021/06/13 11:29:59;;;;;;;3.20;1.30;;;;;;;;;;5004308;28;20087;-61
2021/06/13 11:33:03;;;;;;;2.40;1.63;;;;;;;;;;4997462;28;20034;-61
2021/06/13 11:35:29;;;;;;;3.03;2.15;;;;;;;;;;4959361;28;20034;-61
2021/06/13 11:38:13;;;;;;;3.20;1.70;;;;;;;;;;4960399;28;20089;-61
2021/06/13 11:40:53;;;;;;;1.30;1.20;;;;;;;;;;4980031;28;20505;-61
2021/06/13 11:43:21;;;;;;;1.70;1.52;;;;;;;;;;5004844;28;20072;-61
2021/06/13 11:45:57;;;;;;;3.65;3.00;;;;;;;;;;5002896;28;20061;-61
2021/06/13 11:48:34;;;;;;;4.53;3.90;;;;;;;;;;4998871;28;20037;-61
2021/06/13 11:51:20;;;;;;;3.90;3.38;;;;;;;;;;5000663;28;20107;-61
2021/06/13 11:54:04;;;;;;;4.85;3.88;;;;;;;;;;5000416;28;20391;-62
2021/06/13 11:56:36;;;;;;;2.67;2.00;;;;;;;;;;4998560;28;20030;-61
2021/06/13 11:59:06;;;;;;;3.95;3.10;;;;;;;;;;5000121;28;20237;-61
2021/06/13 12:01:36;;;;;;;1.77;1.60;;;;;;;;;;5002966;28;20044;-62
2021/06/13 12:04:04;;;;;;;1.33;1.20;;;;;;;;;;5019409;28;20450;-62
2021/06/13 12:06:30;;;;;;;1.27;1.00;;;;;;;;;;4993636;28;20045;-61
2021/06/13 12:08:55;;;;;;;1.40;0.90;;;;;;;;;;4998178;28;20034;-62
2021/06/13 12:11:32;;;;;;;1.05;0.90;;;;;;;;;;5004038;28;20033;-63
2021/06/13 12:14:14;;;;;;;1.30;0.90;;;;;;;;;;5001006;28;20169;-61
2021/06/13 12:16:40;;;;;;;1.17;1.05;;;;;;;;;;4998356;28;21387;-62
2021/06/13 12:19:05;;;;;;;1.73;1.10;;;;;;;;;;5017536;28;20030;-62
2021/06/13 12:21:31;;;;;;;1.27;0.90;;;;;;;;;;5002853;28;20021;-62
2021/06/13 12:27:22;;;;;;;2.35;0.80;;;;;;;;;;5000008;28;20029;-61
2021/06/13 12:27:59;;;;;;;2.35;0.90;;;;;;;;;;4997856;28;20513;-62
2021/06/13 12:30:27;;;;;;;1.77;0.90;;;;;;;;;;4994859;28;20476;-61
2021/06/13 12:33:05;;;;;;;1.33;0.90;;;;;;;;;;4998818;28;20152;-62
2021/06/13 12:35:33;;;;;;;0.80;0.68;;;;;;;;;;5003916;28;20029;-61
2021/06/13 12:38:07;;;;;;;1.33;0.90;;;;;;;;;;4999357;28;20475;-61
2021/06/13 12:40:40;;;;;;;1.55;0.75;;;;;;;;;;5002084;28;20732;-61
2021/06/13 12:43:06;;;;;;;1.08;0.98;;;;;;;;;;4999056;28;20030;-63
2021/06/13 12:45:33;;;;;;;1.83;0.98;;;;;;;;;;5003984;28;20037;-62
2021/06/13 12:48:01;;;;;;;0.95;0.70;;;;;;;;;;5000958;28;20056;-62
2021/06/13 12:50:36;;;;;;;1.00;0.90;;;;;;;;;;5001147;28;20025;-62
2021/06/13 12:53:04;;;;;;;1.08;0.80;;;;;;;;;;4999658;28;20038;-62
2021/06/13 12:55:38;;;;;;;1.30;0.80;;;;;;;;;;5004368;28;20073;-62
2021/06/13 12:58:08;;;;;;;1.02;0.70;;;;;;;;;;5000097;28;20499;-62
2021/06/13 13:00:33;;;;;;;1.52;0.80;;;;;;;;;;5003883;28;20452;-62
2021/06/13 13:03:09;;;;;;;0.90;0.70;;;;;;;;;;5002106;28;20069;-62
2021/06/13 13:05:35;;;;;;;0.65;0.65;;;;;;;;;;5006356;28;20109;-62
2021/06/13 13:08:23;;;;;;;1.40;0.70;;;;;;;;;;5001643;28;20022;-62
2021/06/13 13:11:00;;;;;;;1.02;0.70;;;;;;;;;;5001394;28;20169;-62
2021/06/13 13:13:42;;;;;;;0.75;0.70;;;;;;;;;;5002265;28;20022;-62
2021/06/13 13:16:23;;;;;;;1.70;0.70;;;;;;;;;;4997566;28;20037;-62
2021/06/13 13:18:50;;;;;;;0.82;0.47;;;;;;;;;;5004847;28;20030;-63
2021/06/13 13:21:28;;;;;;;0.50;0.40;;;;;;;;;;5000379;28;20022;-63
2021/06/13 13:23:54;;;;;;;0.60;0.50;;;;;;;;;;5003481;28;20537;-63
2021/06/13 13:26:21;;;;;;;0.40;0.40;;;;;;;;;;5009503;28;20034;-63
2021/06/13 13:28:51;;;;;;;1.10;0.90;;;;;;;;;;5004634;28;20018;-63
2021/06/13 13:31:28;;;;;;;1.02;0.73;;;;;;;;;;5001191;28;20030;-63
2021/06/13 13:34:04;;;;;;;0.93;0.52;;;;;;;;;;5001790;28;20124;-62
2021/06/13 13:36:47;;;;;;;1.23;0.70;;;;;;;;;;5002474;28;20109;-62
2021/06/13 13:39:13;;;;;;;1.35;0.70;;;;;;;;;;5006270;28;20099;-62
2021/06/13 13:42:00;;;;;;;0.65;0.57;;;;;;;;;;5000354;28;20033;-63
2021/06/13 13:44:28;;;;;;;1.45;0.70;;;;;;;;;;5007015;28;20480;-62
2021/06/13 13:47:08;;;;;;;1.50;0.60;;;;;;;;;;5001063;28;20084;-63
2021/06/13 13:49:36;;;;;;;0.75;0.63;;;;;;;;;;5006960;28;20524;-62
2021/06/13 13:52:03;;;;;;;1.15;0.70;;;;;;;;;;5005942;28;20037;-63
2021/06/13 13:54:36;;;;;;;1.38;0.60;;;;;;;;;;5004157;28;20030;-62
2021/06/13 13:57:07;;;;;;;1.05;0.60;;;;;;;;;;5007105;28;20517;-62
2021/06/13 13:59:38;;;;;;;0.85;0.30;;;;;;;;;;4995563;28;20061;-62
2021/06/13 14:02:04;;;;;;;1.05;0.60;;;;;;;;;;5003927;28;20021;-62
2021/06/13 14:04:32;;;;;;;0.55;0.43;;;;;;;;;;5000459;28;20084;-62
2021/06/13 14:06:58;;;;;;;0.43;0.38;;;;;;;;;;5007202;28;20026;-61
2021/06/13 14:09:24;;;;;;;0.95;0.50;;;;;;;;;;5000457;28;20085;-61
2021/06/13 14:11:50;;;;;;;1.15;0.60;;;;;;;;;;5002348;28;20026;-62
2021/06/13 14:14:22;;;;;;;1.38;0.57;;;;;;;;;;5003835;28;20403;-61
2021/06/13 14:16:48;;;;;;;0.80;0.80;;;;;;;;;;5004020;28;20053;-62
2021/06/13 14:19:15;;;;;;;0.77;0.60;;;;;;;;;;4997418;28;20065;-63
2021/06/13 14:21:42;;;;;;;1.23;0.60;;;;;;;;;;5005289;28;20057;-61
2021/06/13 14:24:09;;;;;;;0.70;0.52;;;;;;;;;;5001842;28;20109;-62
2021/06/13 14:26:34;;;;;;;0.70;0.60;;;;;;;;;;5016572;28;20037;-62
2021/06/13 14:29:00;;;;;;;1.38;0.60;;;;;;;;;;5008146;28;20045;-62
2021/06/13 14:31:25;;;;;;;0.57;0.50;;;;;;;;;;5001675;28;20112;-62
2021/06/13 14:33:54;;;;;;;0.82;0.70;;;;;;;;;;5006168;28;20045;-63
2021/06/13 14:36:21;;;;;;;;;;;;;;;;;;5003435;28;20026;-62
2021/06/13 14:38:46;;;;;;;0.85;0.50;;;;;;;;;;4998968;28;19944;-63
2021/06/13 14:41:12;;;;;;;1.38;0.60;;;;;;;;;;4996543;28;20061;-62
2021/06/13 14:43:37;;;;;;;1.58;0.50;;;;;;;;;;5006003;28;20061;-63
2021/06/13 14:46:03;;;;;;;1.17;0.60;;;;;;;;;;4996263;28;20128;-62
2021/06/13 14:48:28;;;;;;;0.90;0.63;;;;;;;;;;4999157;28;20038;-63
2021/06/13 14:50:54;;;;;;;1.90;0.90;;;;;;;;;;5001306;28;20041;-62
2021/06/13 14:53:19;;;;;;;0.60;0.60;;;;;;;;;;4997549;28;20069;-62
2021/06/13 14:55:45;;;;;;;0.90;0.75;;;;;;;;;;5005441;28;20103;-62